Time;durP1;ratioP1;P1;durP2;ratioP2;P2;SDS_P1;SDS_P2;PMS_P1;PMS_P2;Temp;Humidity;BMP_temperature;BMP_pressure;BME280_temperature;BME280_humidity;BME280_pressure;Samples;Min_cycle;Max_cycle;Signal;HPM_P1;HPM_P2
2021/09/07 00:01:16;;;;;;;11.53;10.43;;;16.20;99.90;;;;;;5015817;28;20662;-82
2021/09/07 00:03:41;;;;;;;11.03;9.93;;;15.90;99.90;;;;;;5012729;28;20187;-82
2021/09/07 00:06:07;;;;;;;10.40;9.40;;;15.80;99.90;;;;;;5003751;28;20210;-82
2021/09/07 00:08:33;;;;;;;9.60;8.50;;;16.00;99.90;;;;;;5008211;28;20183;-81
2021/09/07 00:10:58;;;;;;;9.93;8.93;;;16.00;99.90;;;;;;5012986;28;20865;-82
2021/09/07 00:13:24;;;;;;;11.47;10.27;;;16.00;99.90;;;;;;5005149;28;20193;-82
2021/09/07 00:15:50;;;;;;;10.03;9.13;;;16.00;99.90;;;;;;5011503;28;20182;-82
2021/09/07 00:18:15;;;;;;;11.13;9.70;;;15.50;99.90;;;;;;5019463;28;20193;-82
2021/09/07 00:20:41;;;;;;;10.33;9.33;;;15.90;99.90;;;;;;4999419;28;20210;-82
2021/09/07 00:23:06;;;;;;;10.97;8.73;;;15.90;99.90;;;;;;5015608;28;20269;-82
2021/09/07 00:25:32;;;;;;;9.63;8.70;;;15.90;99.90;;;;;;5008732;28;20297;-82
2021/09/07 00:27:57;;;;;;;10.50;9.07;;;15.90;99.90;;;;;;5002746;28;20206;-82
2021/09/07 00:30:23;;;;;;;10.57;9.00;;;15.40;99.90;;;;;;5008530;28;20237;-82
2021/09/07 00:32:48;;;;;;;10.37;9.33;;;15.50;99.90;;;;;;5008923;28;20206;-82
2021/09/07 00:35:14;;;;;;;9.67;8.73;;;15.90;99.90;;;;;;5009700;28;20183;-82
2021/09/07 00:37:41;;;;;;;13.53;9.93;;;15.40;99.90;;;;;;5004906;28;20723;-82
2021/09/07 00:40:09;;;;;;;11.75;10.55;;;15.80;99.90;;;;;;5010527;28;20360;-83
2021/09/07 00:42:36;;;;;;;10.90;9.90;;;15.70;99.90;;;;;;5006250;28;20188;-82
2021/09/07 00:45:07;;;;;;;11.18;10.07;;;15.60;99.90;;;;;;5012736;28;20580;-83
2021/09/07 00:47:33;;;;;;;12.18;10.23;;;15.50;99.90;;;;;;5012145;28;20198;-82
2021/09/07 00:49:59;;;;;;;11.17;10.07;;;15.50;99.90;;;;;;5016543;28;20211;-82
2021/09/07 00:52:25;;;;;;;10.27;9.10;;;15.20;99.90;;;;;;5013088;28;20183;-82
2021/09/07 00:54:52;;;;;;;11.60;10.50;;;15.20;99.90;;;;;;5021266;28;20650;-82
2021/09/07 00:57:19;;;;;;;11.75;9.20;;;15.10;99.90;;;;;;5009641;28;20190;-82
2021/09/07 00:59:45;;;;;;;10.10;9.05;;;15.20;99.90;;;;;;5009983;28;20206;-82
2021/09/07 01:02:13;;;;;;;9.73;8.63;;;15.00;99.90;;;;;;5017324;28;20190;-82
2021/09/07 01:04:38;;;;;;;10.30;9.30;;;15.40;99.90;;;;;;5011269;28;20750;-82
2021/09/07 01:07:04;;;;;;;12.20;9.87;;;15.40;99.90;;;;;;5008846;28;20217;-83
2021/09/07 01:09:31;;;;;;;10.88;9.77;;;15.30;99.90;;;;;;5013683;28;20274;-83
2021/09/07 01:11:56;;;;;;;10.25;9.25;;;15.10;99.90;;;;;;5012875;28;20183;-82
2021/09/07 01:14:33;;;;;;;10.63;9.60;;;14.90;99.90;;;;;;5013330;28;20626;-82
2021/09/07 01:17:00;;;;;;;10.85;9.85;;;15.30;99.90;;;;;;5011976;28;20597;-82
2021/09/07 01:19:27;;;;;;;10.77;9.60;;;15.30;99.90;;;;;;5010758;28;20711;-82
2021/09/07 01:21:53;;;;;;;12.00;10.65;;;14.90;99.90;;;;;;5010832;28;20245;-82
2021/09/07 01:24:22;;;;;;;10.43;9.17;;;15.60;99.90;;;;;;5011779;28;20214;-82
2021/09/07 01:26:49;;;;;;;10.40;9.15;;;14.90;99.90;;;;;;5010583;28;20183;-82
2021/09/07 01:29:15;;;;;;;10.60;9.60;;;15.70;99.90;;;;;;5016721;28;20198;-82
2021/09/07 01:31:40;;;;;;;10.80;9.63;;;15.00;99.90;;;;;;5013910;28;20631;-82
2021/09/07 01:34:06;;;;;;;10.30;9.20;;;15.10;99.90;;;;;;5017274;28;20515;-82
2021/09/07 01:36:31;;;;;;;11.73;10.50;;;14.80;99.90;;;;;;5011164;28;20549;-82
2021/09/07 01:38:57;;;;;;;12.80;10.43;;;14.80;99.90;;;;;;5008918;28;20663;-82
2021/09/07 01:41:22;;;;;;;14.23;10.33;;;14.70;99.90;;;;;;5012587;28;20207;-82
2021/09/07 01:43:49;;;;;;;11.33;10.13;;;14.70;99.90;;;;;;5012056;28;20183;-82
2021/09/07 01:46:15;;;;;;;10.57;9.02;;;15.10;99.90;;;;;;5013124;28;20219;-82
2021/09/07 01:48:41;;;;;;;13.37;10.07;;;15.00;99.90;;;;;;5012781;28;20238;-83
2021/09/07 01:51:06;;;;;;;10.80;9.77;;;14.80;99.90;;;;;;5007904;28;20261;-82
2021/09/07 01:53:32;;;;;;;10.57;9.57;;;15.00;99.90;;;;;;5011397;28;20190;-83
2021/09/07 01:55:57;;;;;;;10.63;9.53;;;15.00;99.90;;;;;;5011990;28;20191;-82
2021/09/07 01:58:23;;;;;;;11.03;9.93;;;15.10;99.90;;;;;;5007241;28;20270;-82
2021/09/07 02:00:48;;;;;;;10.33;9.33;;;15.00;99.90;;;;;;5009475;28;20218;-81
2021/09/07 02:03:14;;;;;;;9.80;8.90;;;14.70;99.90;;;;;;5011494;28;20195;-82
2021/09/07 02:05:40;;;;;;;12.10;9.27;;;14.60;99.90;;;;;;5010895;28;20758;-82
2021/09/07 02:08:05;;;;;;;11.53;10.33;;;14.90;99.90;;;;;;5010630;28;20274;-82
2021/09/07 02:10:31;;;;;;;11.27;10.20;;;14.80;99.90;;;;;;5018350;28;20698;-82
2021/09/07 02:12:57;;;;;;;11.20;10.03;;;14.60;99.90;;;;;;5011450;28;20521;-82
2021/09/07 02:15:22;;;;;;;11.13;9.30;;;14.90;99.90;;;;;;5011566;28;20214;-82
2021/09/07 02:17:48;;;;;;;14.07;10.10;;;14.50;99.90;;;;;;5021412;28;20218;-82
2021/09/07 02:20:13;;;;;;;11.50;10.30;;;14.80;99.90;;;;;;5008516;28;20218;-82
2021/09/07 02:22:40;;;;;;;10.80;9.50;;;14.40;99.90;;;;;;5009461;28;20190;-82
2021/09/07 02:25:07;;;;;;;11.63;9.85;;;15.20;99.90;;;;;;5010640;28;20233;-82
2021/09/07 02:27:32;;;;;;;11.05;9.13;;;14.90;99.90;;;;;;5011474;28;20644;-82
2021/09/07 02:29:58;;;;;;;10.10;9.10;;;14.50;99.90;;;;;;5012439;28;20213;-81
2021/09/07 02:32:23;;;;;;;12.13;11.03;;;15.20;99.90;;;;;;5010805;28;20191;-82
2021/09/07 02:34:49;;;;;;;11.40;9.90;;;14.50;99.90;;;;;;5013283;28;20188;-81
2021/09/07 02:37:14;;;;;;;11.20;10.10;;;14.60;99.90;;;;;;5013182;28;20594;-82
2021/09/07 02:39:40;;;;;;;12.07;10.57;;;14.60;99.90;;;;;;5014765;28;20717;-82
2021/09/07 02:42:05;;;;;;;10.67;9.67;;;14.60;99.90;;;;;;5008687;28;20195;-82
2021/09/07 02:44:31;;;;;;;11.40;10.30;;;14.80;99.90;;;;;;5011937;28;20337;-82
2021/09/07 02:46:57;;;;;;;11.30;10.10;;;14.50;99.90;;;;;;5015875;28;20278;-82
2021/09/07 02:49:22;;;;;;;10.50;9.50;;;14.30;99.90;;;;;;5011620;28;20175;-81
2021/09/07 02:51:48;;;;;;;11.20;10.10;;;14.60;99.90;;;;;;5014396;28;20186;-82
2021/09/07 02:54:14;;;;;;;10.97;9.37;;;14.20;99.90;;;;;;5011976;28;20190;-82
2021/09/07 02:56:41;;;;;;;10.93;9.05;;;14.10;99.90;;;;;;5013882;28;20191;-82
2021/09/07 02:59:06;;;;;;;10.63;9.52;;;14.00;99.90;;;;;;5007304;28;20203;-82
2021/09/07 03:01:32;;;;;;;10.30;9.17;;;14.00;99.90;;;;;;5015976;28;20206;-82
2021/09/07 03:03:58;;;;;;;10.47;9.37;;;14.60;99.90;;;;;;5013895;28;20607;-82
2021/09/07 03:06:24;;;;;;;11.23;10.13;;;14.30;99.90;;;;;;5009567;28;20266;-82
2021/09/07 03:08:49;;;;;;;9.70;8.73;;;14.50;99.90;;;;;;5011972;28;20266;-83
2021/09/07 03:11:15;;;;;;;10.40;9.40;;;14.40;99.90;;;;;;5018536;28;20210;-82
2021/09/07 03:13:40;;;;;;;10.43;9.37;;;14.20;99.90;;;;;;5004163;28;20183;-82
2021/09/07 03:16:06;;;;;;;10.10;9.10;;;14.40;99.90;;;;;;5010517;28;20203;-82
2021/09/07 03:18:32;;;;;;;13.90;9.70;;;13.80;99.90;;;;;;5007444;28;20651;-82
2021/09/07 03:20:58;;;;;;;12.23;10.50;;;14.30;99.90;;;;;;5004315;28;20297;-82
2021/09/07 03:23:23;;;;;;;10.63;9.20;;;14.30;99.90;;;;;;5008533;28;20221;-82
2021/09/07 03:25:49;;;;;;;11.23;10.03;;;14.00;99.90;;;;;;5020108;28;20234;-82
2021/09/07 03:28:14;;;;;;;11.40;10.20;;;13.90;99.90;;;;;;5009309;28;20277;-83
2021/09/07 03:30:40;;;;;;;11.77;9.53;;;14.30;99.90;;;;;;5012886;28;20253;-83
2021/09/07 03:33:06;;;;;;;10.90;9.80;;;13.90;99.90;;;;;;5014403;28;20207;-83
2021/09/07 03:35:32;;;;;;;11.60;10.02;;;14.20;99.90;;;;;;4991695;28;20198;-83
2021/09/07 03:37:57;;;;;;;11.03;9.93;;;14.00;99.90;;;;;;5002609;28;20187;-83
2021/09/07 03:40:23;;;;;;;11.17;10.17;;;13.70;99.90;;;;;;5014367;28;20468;-83
2021/09/07 03:42:49;;;;;;;11.07;10.00;;;14.20;99.90;;;;;;5018214;28;20282;-83
2021/09/07 03:45:15;;;;;;;10.97;9.87;;;13.90;99.90;;;;;;5026919;28;20325;-83
2021/09/07 03:47:45;;;;;;;11.20;10.10;;;13.70;99.90;;;;;;5014232;28;20183;-82
2021/09/07 03:50:12;;;;;;;11.35;10.15;;;14.00;99.90;;;;;;5013075;28;20236;-82
2021/09/07 03:52:38;;;;;;;11.00;9.90;;;13.60;99.90;;;;;;5012651;28;20186;-83
2021/09/07 03:55:05;;;;;;;11.73;10.55;;;14.60;99.90;;;;;;5008930;28;20198;-83
2021/09/07 03:57:31;;;;;;;11.82;10.63;;;14.10;99.90;;;;;;5005870;28;20236;-83
2021/09/07 03:59:57;;;;;;;11.87;10.27;;;13.90;99.90;;;;;;5003381;28;20213;-82
2021/09/07 04:02:24;;;;;;;10.68;9.60;;;14.10;99.90;;;;;;5007096;28;20191;-82
2021/09/07 04:04:50;;;;;;;15.50;11.65;;;14.00;99.90;;;;;;5013092;28;20210;-83
2021/09/07 04:07:16;;;;;;;12.25;9.57;;;14.10;99.90;;;;;;5013239;28;20233;-82
2021/09/07 04:09:41;;;;;;;11.93;10.53;;;14.00;99.90;;;;;;5014341;28;20214;-83
2021/09/07 04:12:07;;;;;;;10.97;9.87;;;13.50;99.90;;;;;;5004292;28;20215;-82
2021/09/07 04:14:33;;;;;;;11.20;10.10;;;14.10;99.90;;;;;;5005321;28;20197;-83
2021/09/07 04:16:58;;;;;;;13.10;11.17;;;13.80;99.90;;;;;;5000865;28;20445;-83
2021/09/07 04:19:24;;;;;;;11.77;10.60;;;14.30;99.90;;;;;;5006436;28;20201;-81
2021/09/07 04:21:49;;;;;;;13.43;10.10;;;14.10;99.90;;;;;;5005205;28;20317;-82
2021/09/07 04:24:15;;;;;;;12.00;10.73;;;13.70;99.90;;;;;;5003187;28;20281;-82
2021/09/07 04:26:41;;;;;;;11.50;10.50;;;13.70;99.90;;;;;;5005602;28;20183;-84
2021/09/07 04:29:06;;;;;;;11.50;10.40;;;14.10;99.90;;;;;;5003903;28;20677;-82
2021/09/07 04:31:32;;;;;;;11.93;10.73;;;13.70;99.90;;;;;;5000914;28;20210;-82
2021/09/07 04:33:58;;;;;;;11.83;10.63;;;14.30;99.90;;;;;;5014234;28;20198;-80
2021/09/07 04:36:23;;;;;;;12.03;9.90;;;13.80;99.90;;;;;;5007479;28;20947;-80
2021/09/07 04:38:49;;;;;;;12.07;10.83;;;14.10;99.90;;;;;;5006731;28;20538;-81
2021/09/07 04:41:15;;;;;;;11.57;10.43;;;13.70;99.90;;;;;;5003417;28;22052;-81
2021/09/07 04:43:40;;;;;;;10.77;9.53;;;14.10;99.90;;;;;;5006174;28;20192;-81
2021/09/07 04:46:06;;;;;;;11.83;10.23;;;14.20;99.90;;;;;;5002485;28;20203;-83
2021/09/07 04:48:31;;;;;;;12.27;11.00;;;14.10;99.90;;;;;;5016403;28;20183;-81
2021/09/07 04:50:57;;;;;;;12.37;10.20;;;14.20;99.90;;;;;;4991061;28;20278;-80
2021/09/07 04:53:23;;;;;;;11.43;10.17;;;14.20;99.90;;;;;;4999263;28;20660;-79
2021/09/07 04:55:48;;;;;;;10.90;9.80;;;13.90;99.90;;;;;;5006251;28;20214;-79
2021/09/07 04:58:14;;;;;;;11.30;10.20;;;13.80;99.90;;;;;;5007203;28;20686;-80
2021/09/07 05:00:39;;;;;;;10.80;9.70;;;13.90;99.90;;;;;;5013835;28;20689;-79
2021/09/07 05:03:05;;;;;;;13.30;10.00;;;14.20;99.90;;;;;;5003052;28;20198;-82
2021/09/07 05:05:31;;;;;;;11.90;10.70;;;13.80;99.90;;;;;;5000415;28;20207;-79
2021/09/07 05:07:58;;;;;;;12.40;11.10;;;14.10;99.90;;;;;;5005396;28;20608;-79
2021/09/07 05:10:24;;;;;;;13.35;11.77;;;14.30;99.90;;;;;;4996889;28;20597;-79
2021/09/07 05:12:50;;;;;;;13.30;11.77;;;13.80;99.90;;;;;;5006590;28;20183;-79
2021/09/07 05:15:16;;;;;;;13.33;12.03;;;14.20;99.90;;;;;;5005909;28;20195;-79
2021/09/07 05:17:41;;;;;;;12.23;10.90;;;14.20;99.90;;;;;;5008154;28;20430;-79
2021/09/07 05:20:07;;;;;;;12.03;10.83;;;13.80;99.90;;;;;;5007958;28;20230;-79
2021/09/07 05:22:33;;;;;;;11.70;10.60;;;14.30;99.90;;;;;;4996470;28;20841;-79
2021/09/07 05:25:01;;;;;;;17.10;11.50;;;14.00;99.90;;;;;;5009729;28;20297;-79
2021/09/07 05:27:26;;;;;;;12.95;11.70;;;13.90;99.90;;;;;;5004008;28;20302;-79
2021/09/07 05:29:52;;;;;;;11.83;10.73;;;14.10;99.90;;;;;;5005316;28;20365;-79
2021/09/07 05:32:17;;;;;;;12.13;10.83;;;14.10;99.90;;;;;;5006115;28;20199;-79
2021/09/07 05:34:44;;;;;;;12.00;10.73;;;14.90;99.90;;;;;;5007413;28;20690;-80
2021/09/07 05:37:10;;;;;;;13.07;11.10;;;14.20;99.90;;;;;;5025708;28;20261;-79
2021/09/07 05:39:35;;;;;;;15.90;11.50;;;14.60;99.90;;;;;;4999683;28;20218;-79
2021/09/07 05:42:01;;;;;;;12.50;11.20;;;14.90;99.90;;;;;;5005491;28;20192;-79
2021/09/07 05:44:26;;;;;;;13.03;11.50;;;14.80;99.90;;;;;;4996397;28;20211;-80
2021/09/07 05:46:52;;;;;;;14.10;10.60;;;14.40;99.90;;;;;;5008839;28;20262;-80
2021/09/07 05:49:17;;;;;;;14.07;11.57;;;14.90;99.90;;;;;;5020142;28;20209;-79
2021/09/07 05:51:44;;;;;;;12.07;10.80;;;15.00;99.90;;;;;;5024264;28;20563;-79
2021/09/07 05:54:10;;;;;;;12.43;11.13;;;14.80;99.90;;;;;;5007885;28;20179;-79
2021/09/07 05:56:35;;;;;;;13.30;11.60;;;15.10;99.90;;;;;;5017493;28;20190;-79
2021/09/07 05:59:01;;;;;;;11.90;10.60;;;14.70;99.90;;;;;;5022146;28;20189;-80
2021/09/07 06:01:26;;;;;;;13.60;11.80;;;14.80;99.90;;;;;;5002627;28;20223;-80
2021/09/07 06:03:52;;;;;;;11.50;10.30;;;14.90;99.90;;;;;;5011234;28;20211;-79
2021/09/07 06:06:18;;;;;;;12.27;11.07;;;15.40;99.90;;;;;;4998169;28;20207;-80
2021/09/07 06:08:43;;;;;;;12.40;11.27;;;14.90;99.90;;;;;;5010286;28;20179;-80
2021/09/07 06:11:09;;;;;;;13.40;12.00;;;15.50;99.90;;;;;;5010506;28;20257;-80
2021/09/07 06:13:35;;;;;;;14.30;12.70;;;15.70;99.90;;;;;;5006086;28;20177;-79
2021/09/07 06:16:01;;;;;;;16.25;13.73;;;15.70;99.90;;;;;;5010977;28;20433;-80
2021/09/07 06:18:27;;;;;;;13.77;12.48;;;15.80;99.90;;;;;;5010655;28;20468;-79
2021/09/07 06:20:54;;;;;;;12.03;10.80;;;15.50;99.90;;;;;;5001170;28;20589;-79
2021/09/07 06:23:20;;;;;;;12.38;11.07;;;16.00;99.90;;;;;;5010914;28;20450;-79
2021/09/07 06:25:45;;;;;;;12.43;11.23;;;16.00;99.90;;;;;;5008868;28;20214;-79
2021/09/07 06:28:11;;;;;;;13.33;11.00;;;16.00;99.90;;;;;;5008254;28;20179;-79
2021/09/07 06:30:36;;;;;;;12.87;11.37;;;16.50;99.90;;;;;;5010620;28;20586;-79
2021/09/07 06:33:02;;;;;;;12.73;11.47;;;16.00;99.90;;;;;;5008842;28;20218;-79
2021/09/07 06:35:28;;;;;;;13.70;10.87;;;15.90;99.90;;;;;;5010080;28;20213;-79
2021/09/07 06:37:54;;;;;;;12.53;11.00;;;16.50;99.90;;;;;;4998130;28;20187;-79
2021/09/07 06:40:20;;;;;;;15.20;13.02;;;16.90;99.90;;;;;;5009369;28;20556;-79
2021/09/07 06:42:46;;;;;;;12.85;11.45;;;16.10;99.90;;;;;;4999634;28;20203;-79
2021/09/07 06:45:12;;;;;;;12.60;10.97;;;16.40;99.90;;;;;;5011892;28;20203;-79
2021/09/07 06:47:37;;;;;;;13.30;11.90;;;16.80;99.90;;;;;;5010408;28;20670;-79
2021/09/07 06:50:05;;;;;;;12.47;10.77;;;16.90;99.90;;;;;;5008615;28;20615;-79
2021/09/07 06:52:31;;;;;;;13.52;12.13;;;17.00;99.90;;;;;;5009213;28;20725;-79
2021/09/07 06:54:56;;;;;;;12.20;11.00;;;17.30;99.90;;;;;;5009026;28;20289;-79
2021/09/07 06:57:22;;;;;;;12.90;11.17;;;17.00;99.90;;;;;;5002449;28;20442;-79
2021/09/07 06:59:48;;;;;;;13.13;11.73;;;17.60;99.90;;;;;;5023856;28;20563;-79
2021/09/07 07:02:14;;;;;;;11.40;10.20;;;17.90;99.90;;;;;;5005904;28;20198;-79
2021/09/07 07:04:39;;;;;;;12.50;11.20;;;18.70;99.90;;;;;;5006870;28;20499;-79
2021/09/07 07:07:05;;;;;;;11.83;10.63;;;19.80;99.90;;;;;;5000478;28;20202;-79
2021/09/07 07:09:30;;;;;;;15.47;12.07;;;20.10;99.70;;;;;;5007769;28;20270;-79
2021/09/07 07:11:56;;;;;;;11.10;10.00;;;20.70;98.60;;;;;;5006734;28;20267;-79
2021/09/07 07:14:22;;;;;;;12.43;11.20;;;21.40;97.30;;;;;;5008152;28;20265;-79
2021/09/07 07:16:48;;;;;;;14.10;11.23;;;22.30;96.50;;;;;;5009516;28;20215;-80
2021/09/07 07:19:15;;;;;;;12.20;11.07;;;23.50;93.80;;;;;;5008788;28;20183;-80
2021/09/07 07:21:40;;;;;;;12.33;11.10;;;24.20;92.40;;;;;;5002174;28;20438;-80
2021/09/07 07:24:06;;;;;;;15.10;11.47;;;24.60;91.40;;;;;;5008036;28;20474;-80
2021/09/07 07:26:32;;;;;;;12.80;11.60;;;25.60;88.90;;;;;;5008352;28;20189;-80
2021/09/07 07:28:57;;;;;;;13.40;12.00;;;25.30;86.30;;;;;;5002016;28;20213;-80
2021/09/07 07:31:23;;;;;;;12.90;11.70;;;26.30;84.70;;;;;;5007490;28;20208;-80
2021/09/07 07:33:48;;;;;;;12.97;11.67;;;27.00;80.80;;;;;;5008799;28;20202;-80
2021/09/07 07:36:14;;;;;;;11.90;10.80;;;26.90;79.40;;;;;;5003652;28;20238;-80
2021/09/07 07:38:39;;;;;;;13.70;10.63;;;26.40;79.20;;;;;;5009377;28;20660;-79
2021/09/07 07:41:05;;;;;;;12.30;11.17;;;26.30;80.80;;;;;;5008043;28;20215;-80
2021/09/07 07:43:33;;;;;;;12.53;11.33;;;26.10;80.70;;;;;;5002602;28;20191;-80
2021/09/07 07:45:59;;;;;;;12.60;11.40;;;25.60;81.10;;;;;;5007519;28;20233;-80
2021/09/07 07:48:25;;;;;;;13.67;12.27;;;25.50;81.70;;;;;;5006850;28;20938;-80
2021/09/07 07:50:50;;;;;;;12.07;11.00;;;27.40;79.30;;;;;;5008030;28;20504;-80
2021/09/07 07:53:16;;;;;;;12.40;11.10;;;29.20;73.00;;;;;;5008001;28;20301;-80
2021/09/07 07:55:42;;;;;;;12.67;11.03;;;30.50;67.50;;;;;;5008765;28;20198;-80
2021/09/07 07:58:07;;;;;;;16.67;14.93;;;28.90;65.70;;;;;;5007060;28;20607;-80
2021/09/07 08:00:33;;;;;;;12.70;11.60;;;28.30;69.40;;;;;;5009013;28;20695;-79
2021/09/07 08:02:58;;;;;;;11.40;10.30;;;28.60;69.50;;;;;;5018887;28;20665;-79
2021/09/07 08:05:24;;;;;;;12.57;11.40;;;27.90;68.40;;;;;;5026595;28;20202;-79
2021/09/07 08:07:49;;;;;;;11.50;10.27;;;27.90;69.70;;;;;;5000344;28;20207;-80
2021/09/07 08:10:15;;;;;;;12.63;11.37;;;28.30;69.80;;;;;;5008593;28;20209;-80
2021/09/07 08:12:41;;;;;;;11.50;10.43;;;30.40;65.80;;;;;;4999766;28;20655;-81
2021/09/07 08:15:07;;;;;;;11.23;10.10;;;31.30;60.90;;;;;;5022147;28;20189;-81
2021/09/07 08:17:33;;;;;;;12.90;11.53;;;31.80;59.30;;;;;;5028782;28;20490;-81
2021/09/07 08:19:58;;;;;;;12.03;11.10;;;32.40;57.80;;;;;;5006780;28;20469;-81
2021/09/07 08:22:24;;;;;;;12.50;11.17;;;31.50;57.40;;;;;;5000155;28;20194;-81
2021/09/07 08:24:50;;;;;;;14.17;11.03;;;31.50;58.70;;;;;;5009309;28;20214;-81
2021/09/07 08:27:16;;;;;;;12.30;10.30;;;31.80;57.70;;;;;;5003212;28;20662;-81
2021/09/07 08:29:41;;;;;;;11.93;10.83;;;31.60;57.20;;;;;;5006260;28;20207;-81
2021/09/07 08:32:07;;;;;;;11.30;10.40;;;33.10;56.20;;;;;;5008789;28;20434;-81
2021/09/07 08:34:33;;;;;;;10.20;9.10;;;34.30;52.60;;;;;;5020990;28;20204;-81
2021/09/07 08:36:58;;;;;;;10.63;9.53;;;33.10;52.90;;;;;;5016568;28;20443;-81
2021/09/07 08:39:24;;;;;;;10.40;9.50;;;34.30;51.70;;;;;;5005812;28;20547;-81
2021/09/07 08:41:50;;;;;;;9.73;8.73;;;35.50;49.30;;;;;;5006227;28;20191;-81
2021/09/07 08:44:17;;;;;;;10.13;9.23;;;36.00;47.80;;;;;;5005738;28;20183;-81
2021/09/07 08:46:43;;;;;;;11.97;10.60;;;36.10;46.80;;;;;;5011040;28;20437;-81
2021/09/07 08:49:10;;;;;;;11.57;10.57;;;35.60;47.40;;;;;;5009121;28;20492;-80
2021/09/07 08:51:36;;;;;;;13.20;11.73;;;35.30;48.50;;;;;;5005163;28;20489;-80
2021/09/07 08:54:01;;;;;;;11.33;10.33;;;34.40;49.30;;;;;;5008552;28;20469;-80
2021/09/07 08:56:27;;;;;;;11.17;10.17;;;33.80;50.20;;;;;;5008918;28;20229;-81
2021/09/07 08:58:52;;;;;;;10.77;9.77;;;33.50;51.00;;;;;;5007823;28;20555;-79
2021/09/07 09:01:18;;;;;;;11.60;10.50;;;32.40;51.90;;;;;;5012982;28;20710;-79
2021/09/07 09:03:46;;;;;;;11.60;10.57;;;31.50;54.00;;;;;;5017356;28;20195;-79
2021/09/07 09:06:12;;;;;;;11.10;9.83;;;30.80;55.60;;;;;;5009394;28;20285;-79
2021/09/07 09:08:39;;;;;;;11.00;10.00;;;29.80;57.00;;;;;;5011604;28;20428;-79
2021/09/07 09:11:07;;;;;;;13.97;10.33;;;29.40;59.00;;;;;;5012746;28;21030;-79
2021/09/07 09:13:44;;;;;;;10.93;9.77;;;28.80;59.80;;;;;;5000833;28;20489;-79
2021/09/07 09:16:10;;;;;;;12.60;10.20;;;28.40;61.70;;;;;;5010554;28;20481;-78
2021/09/07 09:18:38;;;;;;;12.47;10.67;;;27.80;62.20;;;;;;5011764;28;20438;-79
2021/09/07 09:21:23;;;;;;;11.23;10.23;;;27.30;64.50;;;;;;5024997;28;20194;-79
2021/09/07 09:24:18;;;;;;;11.60;10.40;;;26.80;66.70;;;;;;5003298;28;20441;-79
2021/09/07 09:27:00;;;;;;;10.47;9.53;;;26.60;69.00;;;;;;5009735;28;20421;-79
2021/09/07 09:29:28;;;;;;;10.90;9.80;;;26.40;69.10;;;;;;5008490;28;20420;-79
2021/09/07 09:31:56;;;;;;;10.90;9.90;;;26.30;70.10;;;;;;5010715;28;20429;-79
2021/09/07 09:34:23;;;;;;;12.83;11.63;;;26.30;71.00;;;;;;5011295;28;20432;-79
2021/09/07 09:37:06;;;;;;;11.93;10.70;;;26.40;70.60;;;;;;5002074;28;20488;-79
2021/09/07 09:39:47;;;;;;;12.67;9.93;;;26.40;70.10;;;;;;5010430;28;21158;-79
2021/09/07 09:42:27;;;;;;;11.57;10.43;;;26.30;70.20;;;;;;5005752;28;20480;-79
2021/09/07 09:45:03;;;;;;;10.50;9.60;;;26.80;70.00;;;;;;5011825;28;20465;-79
2021/09/07 09:47:36;;;;;;;11.60;10.40;;;27.20;68.50;;;;;;5011338;28;20467;-79
2021/09/07 09:50:03;;;;;;;11.43;10.33;;;27.50;66.00;;;;;;5008305;28;20456;-80
2021/09/07 09:52:35;;;;;;;13.77;11.07;;;27.40;66.80;;;;;;5009356;28;20428;-80
2021/09/07 09:55:00;;;;;;;10.90;9.60;;;27.50;67.60;;;;;;5009970;28;20433;-79
2021/09/07 09:57:26;;;;;;;11.10;9.93;;;27.30;66.40;;;;;;5009163;28;20447;-80
2021/09/07 09:59:54;;;;;;;11.10;9.97;;;27.10;69.40;;;;;;5011214;28;20209;-80
2021/09/07 10:02:21;;;;;;;10.50;9.47;;;26.90;67.90;;;;;;5010203;28;20178;-80
2021/09/07 10:04:47;;;;;;;11.40;10.30;;;27.00;68.30;;;;;;5002141;28;20470;-80
2021/09/07 10:07:13;;;;;;;11.17;10.00;;;27.00;68.30;;;;;;5010310;28;20433;-80
2021/09/07 10:09:41;;;;;;;11.87;10.67;;;26.90;67.70;;;;;;5009091;28;20446;-80
2021/09/07 10:12:30;;;;;;;11.10;10.07;;;26.70;68.10;;;;;;5006127;28;20545;-80
2021/09/07 10:17:33;;;;;;;11.07;9.93;;;26.90;69.20;;;;;;5011427;28;20439;-79
2021/09/07 10:25:56;;;;;;;9.73;8.73;;;26.50;69.70;;;;;;5001337;28;20475;-79
2021/09/07 10:28:36;;;;;;;11.50;8.87;;;26.70;67.60;;;;;;4997692;28;20484;-79
2021/09/07 10:31:04;;;;;;;9.77;8.30;;;26.80;66.90;;;;;;5008534;28;20460;-78
2021/09/07 10:33:36;;;;;;;9.77;8.97;;;26.80;66.00;;;;;;5009060;28;20806;-79
2021/09/07 10:36:08;;;;;;;10.07;9.07;;;26.90;66.50;;;;;;5008743;28;20450;-79
2021/09/07 10:38:45;;;;;;;11.07;10.07;;;26.80;66.30;;;;;;5010552;28;20439;-79
2021/09/07 10:41:38;;;;;;;10.07;9.27;;;26.70;65.90;;;;;;5008966;28;20810;-79
2021/09/07 10:44:08;;;;;;;9.57;8.57;;;26.90;65.10;;;;;;5007969;28;20442;-79
2021/09/07 10:46:40;;;;;;;11.80;10.80;;;27.00;66.30;;;;;;5009199;28;20466;-79
2021/09/07 10:49:43;;;;;;;8.67;7.97;;;27.20;64.80;;;;;;5038083;28;20440;-79
2021/09/07 10:52:27;;;;;;;8.80;8.00;;;27.40;62.40;;;;;;5004693;28;20441;-79
2021/09/07 10:54:53;;;;;;;7.73;7.13;;;27.00;61.00;;;;;;5009649;28;20892;-80
2021/09/07 10:57:53;;;;;;;7.67;7.07;;;27.10;61.10;;;;;;5009288;28;20441;-79
2021/09/07 11:00:21;;;;;;;7.80;7.10;;;27.00;61.00;;;;;;5015504;28;20746;-79
2021/09/07 11:02:56;;;;;;;8.40;7.70;;;26.90;61.30;;;;;;5030692;28;20514;-80
2021/09/07 11:05:28;;;;;;;7.17;6.57;;;26.80;60.10;;;;;;4999782;28;20555;-79
2021/09/07 11:08:04;;;;;;;8.07;7.37;;;26.90;60.00;;;;;;5007145;28;20444;-80
2021/09/07 11:10:29;;;;;;;8.03;7.43;;;27.30;60.50;;;;;;5008141;28;20817;-80
2021/09/07 11:13:00;;;;;;;7.47;6.80;;;27.10;58.60;;;;;;4998546;28;20439;-80
2021/09/07 11:15:29;;;;;;;8.20;7.57;;;27.10;59.30;;;;;;4997627;28;20175;-79
2021/09/07 11:17:57;;;;;;;7.23;6.67;;;27.30;59.90;;;;;;5009694;28;20520;-80
2021/09/07 11:20:33;;;;;;;6.90;6.30;;;27.40;58.40;;;;;;5005178;28;20979;-79
2021/09/07 11:23:13;;;;;;;7.80;7.00;;;27.40;58.80;;;;;;4999927;28;20457;-79
2021/09/07 11:25:40;;;;;;;10.53;7.50;;;27.40;58.90;;;;;;5009989;28;20544;-79
2021/09/07 11:28:07;;;;;;;7.80;7.10;;;27.20;58.00;;;;;;4997382;28;20938;-79
2021/09/07 11:30:35;;;;;;;7.57;6.90;;;27.20;57.20;;;;;;5009105;28;20451;-80
2021/09/07 11:33:03;;;;;;;7.83;7.13;;;27.40;57.50;;;;;;5007752;28;20457;-79
2021/09/07 11:35:31;;;;;;;8.37;7.53;;;27.60;56.60;;;;;;5010658;28;20447;-79
2021/09/07 11:38:02;;;;;;;8.63;7.83;;;27.70;56.00;;;;;;5003389;28;20931;-79
2021/09/07 11:40:28;;;;;;;7.50;6.90;;;27.60;56.70;;;;;;5008078;28;20468;-79
2021/09/07 11:42:54;;;;;;;7.97;7.23;;;27.50;57.40;;;;;;4998069;28;20483;-79
2021/09/07 11:45:30;;;;;;;7.33;6.73;;;27.40;57.00;;;;;;5009790;28;20506;-79
2021/09/07 11:47:57;;;;;;;7.60;7.00;;;27.40;56.70;;;;;;5009197;28;20636;-79
2021/09/07 11:50:29;;;;;;;7.23;6.63;;;27.40;55.80;;;;;;5008548;28;20454;-79
2021/09/07 11:52:57;;;;;;;6.80;6.30;;;27.60;54.30;;;;;;5009622;28;20521;-79
2021/09/07 11:55:38;;;;;;;6.67;6.17;;;27.50;53.70;;;;;;5009416;28;20425;-79
2021/09/07 11:58:05;;;;;;;7.80;7.10;;;27.90;54.10;;;;;;5001653;28;20445;-79
2021/09/07 12:00:32;;;;;;;6.80;6.20;;;27.70;54.70;;;;;;5009356;28;20455;-79
2021/09/07 12:03:15;;;;;;;7.27;6.67;;;27.60;53.40;;;;;;5009308;28;20437;-79
2021/09/07 12:05:57;;;;;;;6.47;5.83;;;27.80;53.40;;;;;;5006378;28;20492;-79
2021/09/07 12:08:39;;;;;;;7.43;6.83;;;28.00;53.40;;;;;;5007541;28;20447;-78
2021/09/07 12:11:07;;;;;;;7.40;6.70;;;27.70;52.30;;;;;;5009346;28;20461;-78
2021/09/07 12:13:34;;;;;;;7.40;6.70;;;27.50;51.70;;;;;;5005096;28;20516;-79
2021/09/07 12:16:02;;;;;;;7.67;6.97;;;27.30;52.30;;;;;;5015354;28;20470;-79
2021/09/07 12:18:33;;;;;;;7.00;6.40;;;27.50;54.30;;;;;;5028718;28;20464;-79
2021/09/07 12:21:10;;;;;;;7.57;6.90;;;27.40;54.20;;;;;;5002106;28;20467;-79
2021/09/07 12:23:38;;;;;;;7.23;6.63;;;27.50;53.00;;;;;;5004405;28;20917;-79
2021/09/07 12:26:04;;;;;;;7.00;6.40;;;27.40;52.40;;;;;;5007505;28;20465;-79
2021/09/07 12:28:31;;;;;;;6.70;6.10;;;27.50;52.40;;;;;;5009933;28;20434;-79
2021/09/07 12:31:20;;;;;;;7.40;6.80;;;27.60;51.10;;;;;;5028485;28;20452;-79
2021/09/07 12:33:54;;;;;;;7.63;6.93;;;27.40;52.90;;;;;;5030069;28;20476;-78
2021/09/07 12:36:22;;;;;;;7.47;6.77;;;27.50;53.00;;;;;;5010102;28;20445;-79
2021/09/07 12:38:51;;;;;;;7.37;6.77;;;27.50;53.60;;;;;;5012656;28;20446;-79
2021/09/07 12:41:21;;;;;;;8.23;7.23;;;27.70;53.70;;;;;;5013349;28;20452;-79
2021/09/07 12:43:49;;;;;;;7.03;6.53;;;27.70;53.20;;;;;;5001799;28;20529;-79